Aérodrome :
LOGIN :

S'inscrire | Disclaimer

   EN    FR    IT 

 










Légende :    VFR   VFR Marginal   IFR   IFR Intensif   IFR Très Intensif
Visi : 
Plafond : 
>= 8 km
>= 3000ft
5 à 8 km
1000 à 3000 ft
1500m à 5 km
500 à 1000 ft
800 à 1500m
200 à 500 ft
< 800m
< 200 ft
Symboles :   Orages  Brouillard  Fortes neiges  Fortes précipitations  Vent > 20 kt
SIGMETs :   Divers  Orages  Givrage  Turbulence  Onde Orograph.  Cendres Volcan.






- Altitude de l'aérodrome : 681 ft
- Code IATA : OSL


ENGM - Oslo Gardermoen

DERNIER METAR :
  • 281120Z 36014KT 320V030 CAVOK 05/M09 Q1024 TEMPO 36015G25KT

METARs EXPIRÉS :
  • 281050Z 02017KT CAVOK 06/M10 Q1024 TEMPO 356018G28KT
  • 281020Z 35016KT CAVOK 05/M10 Q1024 TEMPO 35018G28KT
  • 280950Z 35015KT 310V010 CAVOK 04/M10 Q1024 TEMPO 35018G28KT
  • 280920Z 36018G28KT CAVOK 04/M10 Q1024 TEMPO 35015KT
  • 280850Z 35016KT CAVOK 04/M11 Q1024 NOSIG

TAF TAF ENGM
Valide du 28 à 06h jusqu'au 29 à 06h UTC


2806/2906 VRB03KT CAVOK
BECMG 2806/2808 36010KT
TEMPO 2810/2815 36015G25KT



MET'MAP, la Météo Aéronautique d'un coup d'oeil ! - Copyright ORBIFLY Décembre 2007 - Disclaimer

ORBIFLY MET'MAP TEAM :

Programmation & Développement : Alexandra Zaïnal
Sur une idée originale de : Baudouin d'Aumeries
Assistance à la programmation : Marc-Olivier Méhu
Soutien technique & logistique : Manuel Goepfert

Contact : metmap@orbifly.com




SOURCES & CREDITS :

   NOAA